createdAt,value
2023-03-22T00:02:23.130Z,2.95
2023-03-22T00:05:24.723Z,3.75
2023-03-22T00:08:26.275Z,3.17
2023-03-22T00:11:27.908Z,3.30
2023-03-22T00:14:29.444Z,3.50
2023-03-22T00:17:30.984Z,3.17
2023-03-22T00:20:37.748Z,3.30
2023-03-22T00:23:39.998Z,3.25
2023-03-22T00:26:41.523Z,3.47
2023-03-22T00:29:43.076Z,3.42
2023-03-22T00:32:44.615Z,3.05
2023-03-22T00:35:52.484Z,3.10
2023-03-22T00:38:53.992Z,3.50
2023-03-22T00:41:55.909Z,3.20
2023-03-22T00:44:57.428Z,3.38
2023-03-22T00:47:59.025Z,3.38
2023-03-22T00:51:01.130Z,3.40
2023-03-22T00:54:05.731Z,2.80
2023-03-22T00:57:07.872Z,2.97
2023-03-22T01:00:13.196Z,3.35
2023-03-22T01:03:16.235Z,3.70
2023-03-22T01:06:18.644Z,3.33
2023-03-22T01:09:23.900Z,3.45
2023-03-22T01:12:27.032Z,3.38
2023-03-22T01:15:28.575Z,4.22
2023-03-22T01:18:30.417Z,3.65
2023-03-22T01:21:31.958Z,3.63
2023-03-22T01:24:33.803Z,3.65
2023-03-22T01:27:35.958Z,3.78
2023-03-22T01:30:40.011Z,3.88
2023-03-22T01:33:41.693Z,3.83
2023-03-22T01:36:43.438Z,4.10
2023-03-22T01:39:45.388Z,4.47
2023-03-22T01:42:49.693Z,4.30
2023-03-22T01:45:54.821Z,4.28
2023-03-22T01:49:04.860Z,4.45
2023-03-22T01:52:11.141Z,3.78
2023-03-22T01:55:34.020Z,3.78
2023-03-22T01:58:46.510Z,4.40
2023-03-22T02:01:51.179Z,5.00
2023-03-22T02:04:57.904Z,4.97
2023-03-22T02:08:02.809Z,5.20
2023-03-22T02:11:16.821Z,5.00
2023-03-22T02:14:28.131Z,4.20
2023-03-22T02:17:44.126Z,3.90
2023-03-22T02:21:12.734Z,3.38
2023-03-22T02:24:38.647Z,3.53
2023-03-22T02:28:15.738Z,3.80
2023-03-22T02:31:29.983Z,3.97
2023-03-22T02:35:09.132Z,3.50
2023-03-22T02:38:10.692Z,3.17
2023-03-22T02:41:20.950Z,3.38
2023-03-22T02:44:38.555Z,3.40
2023-03-22T02:48:01.427Z,3.63
2023-03-22T02:51:06.193Z,3.40
2023-03-22T02:54:26.374Z,3.40
2023-03-22T02:57:41.095Z,3.20
2023-03-22T03:00:45.033Z,3.42
2023-03-22T03:03:50.306Z,3.40
2023-03-22T03:06:55.340Z,3.65
2023-03-22T03:09:57.591Z,3.42
2023-03-22T03:12:59.062Z,3.55
2023-03-22T03:16:03.956Z,3.58
2023-03-22T03:19:28.914Z,3.38
2023-03-22T03:23:09.135Z,3.58
2023-03-22T03:26:27.853Z,3.20
2023-03-22T03:29:38.209Z,3.72
2023-03-22T03:32:52.528Z,3.65
2023-03-22T03:36:02.614Z,3.33
2023-03-22T03:39:11.039Z,3.40
2023-03-22T03:42:15.574Z,3.30
2023-03-22T03:45:19.055Z,3.53
2023-03-22T03:48:28.083Z,3.40
2023-03-22T03:51:29.812Z,3.95
2023-03-22T03:54:31.556Z,3.45
2023-03-22T03:57:33.198Z,3.40
2023-03-22T04:00:35.760Z,3.78
2023-03-22T04:03:56.383Z,3.88
2023-03-22T04:07:12.965Z,3.45
2023-03-22T04:10:14.412Z,4.15
2023-03-22T04:13:15.993Z,4.05
2023-03-22T04:16:18.005Z,4.68
2023-03-22T04:19:20.319Z,4.35
2023-03-22T04:22:23.173Z,4.18
2023-03-22T04:25:30.319Z,5.28
2023-03-22T04:28:41.708Z,5.63
2023-03-22T04:31:44.271Z,6.35
2023-03-22T04:34:58.081Z,6.07
2023-03-22T04:38:01.187Z,6.63
2023-03-22T04:41:03.168Z,8.05
2023-03-22T04:44:12.011Z,7.10
2023-03-22T04:47:18.977Z,6.05
2023-03-22T04:50:20.913Z,5.63
2023-03-22T04:53:27.579Z,4.43
2023-03-22T04:56:33.624Z,4.05
2023-03-22T04:59:35.361Z,4.40
2023-03-22T05:02:41.419Z,4.70
2023-03-22T05:05:52.679Z,4.00
2023-03-22T05:08:56.559Z,3.88
2023-03-22T05:11:58.301Z,3.78
2023-03-22T05:15:06.699Z,3.63
2023-03-22T05:18:14.375Z,4.05
2023-03-22T05:21:22.069Z,4.20
2023-03-22T05:24:31.549Z,3.67
2023-03-22T05:27:34.639Z,3.50
2023-03-22T05:30:57.034Z,4.00
2023-03-22T05:34:20.407Z,4.32
2023-03-22T05:37:22.352Z,4.60
2023-03-22T05:40:28.193Z,6.78
2023-03-22T05:43:30.038Z,5.47
2023-03-22T05:46:31.869Z,5.72
2023-03-22T05:49:53.368Z,6.70
2023-03-22T05:52:57.621Z,9.63
2023-03-22T05:56:09.990Z,6.80
2023-03-22T05:59:12.900Z,5.70
2023-03-22T06:02:15.724Z,4.90
2023-03-22T06:05:17.584Z,4.30
2023-03-22T06:08:19.813Z,3.97
2023-03-22T06:11:22.667Z,3.97
2023-03-22T06:14:24.680Z,5.13
2023-03-22T06:17:42.971Z,5.35
2023-03-22T06:20:47.396Z,5.57
2023-03-22T06:23:53.396Z,6.32
2023-03-22T06:26:56.675Z,5.07
2023-03-22T06:29:58.151Z,5.10
2023-03-22T06:33:04.320Z,5.00
2023-03-22T06:36:08.856Z,4.88
2023-03-22T06:39:32.873Z,5.10
2023-03-22T06:42:35.447Z,5.07
2023-03-22T06:45:42.132Z,3.85
2023-03-22T06:48:43.765Z,4.18
2023-03-22T06:51:48.976Z,4.22
2023-03-22T06:54:50.543Z,5.13
2023-03-22T06:57:52.182Z,6.43
2023-03-22T07:00:56.206Z,6.75
2023-03-22T07:03:59.343Z,8.85
2023-03-22T07:07:00.893Z,6.13
2023-03-22T07:10:02.829Z,6.25
2023-03-22T07:13:04.567Z,5.38
2023-03-22T07:16:07.946Z,5.60
2023-03-22T07:19:14.730Z,5.28
2023-03-22T07:22:16.242Z,5.65
2023-03-22T07:25:18.735Z,5.22
2023-03-22T07:28:22.670Z,5.22
2023-03-22T07:31:24.196Z,5.53
2023-03-22T07:34:36.916Z,6.20
2023-03-22T07:37:42.644Z,7.07
2023-03-22T07:40:57.175Z,8.45
2023-03-22T07:44:17.324Z,7.50
2023-03-22T07:47:40.897Z,7.30
2023-03-22T07:51:01.292Z,6.07
2023-03-22T07:54:07.609Z,4.35
2023-03-22T08:00:19.930Z,4.20
2023-03-22T08:03:31.389Z,3.50
2023-03-22T08:06:42.865Z,3.03
2023-03-22T08:09:46.124Z,2.72
2023-03-22T08:12:47.728Z,3.00
2023-03-22T08:15:57.092Z,3.08
2023-03-22T08:18:59.320Z,3.30
2023-03-22T08:22:03.656Z,2.90
2023-03-22T08:25:25.386Z,2.13
2023-03-22T08:28:28.772Z,1.95
2023-03-22T08:31:30.475Z,2.28
2023-03-22T08:34:33.183Z,2.47
2023-03-22T08:37:34.633Z,2.22
2023-03-22T08:40:39.021Z,2.10
2023-03-22T08:43:40.793Z,2.08
2023-03-22T08:46:42.369Z,2.33
2023-03-22T08:49:44.180Z,2.28
2023-03-22T08:52:53.614Z,2.47
2023-03-22T08:56:01.685Z,2.03
2023-03-22T08:59:17.285Z,1.45
2023-03-22T09:02:29.862Z,1.90
2023-03-22T09:05:32.771Z,1.50
2023-03-22T09:08:34.863Z,2.33
2023-03-22T09:11:42.768Z,2.40
2023-03-22T09:14:46.791Z,2.15
2023-03-22T09:17:48.799Z,2.13
2023-03-22T09:20:51.423Z,2.15
2023-03-22T09:23:56.391Z,1.90
2023-03-22T09:27:06.225Z,1.73
2023-03-22T09:30:08.419Z,1.65
2023-03-22T09:33:10.908Z,1.40
2023-03-22T09:36:15.980Z,2.28
2023-03-22T09:39:17.743Z,1.45
2023-03-22T09:42:32.047Z,1.90
2023-03-22T09:45:43.754Z,1.67
2023-03-22T09:48:48.374Z,1.40
2023-03-22T09:51:52.606Z,1.67
2023-03-22T09:54:54.155Z,1.40
2023-03-22T09:58:24.722Z,1.42
2023-03-22T10:01:47.116Z,1.75
2023-03-22T10:05:00.626Z,2.00
2023-03-22T10:08:11.102Z,1.27
2023-03-22T10:11:24.494Z,1.58
2023-03-22T10:14:40.333Z,2.50
2023-03-22T10:17:46.453Z,1.73
2023-03-22T10:21:09.164Z,1.80
2023-03-22T10:24:23.903Z,2.42
2023-03-22T10:27:28.575Z,2.00
2023-03-22T10:30:38.826Z,1.50
2023-03-22T10:33:50.503Z,1.95
2023-03-22T10:36:53.185Z,1.88
2023-03-22T10:39:58.572Z,1.52
2023-03-22T10:43:25.138Z,1.65
2023-03-22T10:46:32.286Z,2.15
2023-03-22T10:49:42.877Z,2.03
2023-03-22T10:53:05.859Z,1.77
2023-03-22T10:56:15.594Z,1.75
2023-03-22T10:59:47.580Z,1.45
2023-03-22T11:02:58.329Z,2.22
2023-03-22T11:06:32.924Z,1.90
2023-03-22T11:09:34.496Z,1.83
2023-03-22T11:12:43.783Z,2.05
2023-03-22T11:15:55.717Z,2.15
2023-03-22T11:18:58.194Z,2.22
2023-03-22T11:22:01.320Z,1.95
2023-03-22T11:25:07.069Z,1.53
2023-03-22T11:28:17.530Z,1.67
2023-03-22T11:31:20.915Z,1.85
2023-03-22T11:34:24.681Z,2.38
2023-03-22T11:37:26.325Z,1.77
2023-03-22T11:40:31.484Z,2.00
2023-03-22T11:43:37.756Z,2.10
2023-03-22T11:46:40.259Z,1.52
2023-03-22T11:49:50.458Z,1.85
2023-03-22T11:52:52.477Z,1.80
2023-03-22T11:55:57.187Z,2.40
2023-03-22T11:59:09.192Z,2.10
2023-03-22T12:02:27.168Z,2.08
2023-03-22T12:05:32.328Z,2.53
2023-03-22T12:08:49.652Z,1.65
2023-03-22T12:11:57.414Z,1.75
2023-03-22T12:15:07.892Z,2.08
2023-03-22T12:18:17.847Z,1.90
2023-03-22T12:21:19.660Z,1.85
2023-03-22T12:24:30.761Z,2.60
2023-03-22T12:27:38.708Z,1.92
2023-03-22T12:30:48.783Z,2.30
2023-03-22T12:34:05.334Z,1.77
2023-03-22T12:37:12.064Z,1.73
2023-03-22T12:40:24.858Z,2.25
2023-03-22T12:43:40.850Z,2.22
2023-03-22T12:46:54.614Z,1.92
2023-03-22T12:50:06.659Z,2.30
2023-03-22T12:53:14.969Z,2.05
2023-03-22T12:56:19.535Z,2.22
2023-03-22T12:59:26.884Z,1.77
2023-03-22T13:02:32.699Z,2.08
2023-03-22T13:05:36.299Z,1.75
2023-03-22T13:09:13.012Z,2.42
2023-03-22T13:12:17.353Z,2.15
2023-03-22T13:15:41.718Z,1.80
2023-03-22T13:18:43.518Z,2.00
2023-03-22T13:21:49.195Z,1.95
2023-03-22T13:25:13.131Z,2.08
2023-03-22T13:28:29.537Z,2.58
2023-03-22T13:31:44.920Z,2.20
2023-03-22T13:34:51.867Z,2.53
2023-03-22T13:37:55.761Z,2.13
2023-03-22T13:44:36.292Z,1.95
2023-03-22T13:47:46.011Z,2.33
2023-03-22T13:50:48.430Z,1.65
2023-03-22T13:53:58.306Z,2.28
2023-03-22T13:57:01.618Z,1.80
2023-03-22T14:00:34.603Z,1.90
2023-03-22T14:03:40.680Z,2.20
2023-03-22T14:07:21.760Z,2.13
2023-03-22T14:10:46.082Z,2.08
2023-03-22T14:13:51.395Z,1.95
2023-03-22T14:17:02.168Z,1.73
2023-03-22T14:20:10.437Z,1.90
